Time;durP1;ratioP1;P1;durP2;ratioP2;P2;SDS_P1;SDS_P2;PMS_P1;PMS_P2;Temp;Humidity;BMP_temperature;BMP_pressure;BME280_temperature;BME280_humidity;BME280_pressure;Samples;Min_cycle;Max_cycle;Signal;HPM_P1;HPM_P2
2023/04/08 00:00:13;;;;;;;;;;;7.00;99.90;;;;;;2064819;28;19928;-72
2023/04/08 00:01:13;;;;;;;;;;;6.90;99.90;;;;;;2066629;28;19917;-72
2023/04/08 00:02:14;;;;;;;;;;;6.90;99.90;;;;;;2057582;28;20408;-72
2023/04/08 00:03:15;;;;;;;;;;;6.90;99.90;;;;;;2066477;28;19909;-72
2023/04/08 00:04:15;;;;;;;;;;;6.90;99.90;;;;;;2066319;28;19905;-72
2023/04/08 00:05:16;;;;;;;;;;;6.90;99.90;;;;;;2059473;28;20538;-72
2023/04/08 00:06:16;;;;;;;;;;;6.80;99.90;;;;;;2057770;28;19996;-72
2023/04/08 00:07:17;;;;;;;;;;;6.80;99.90;;;;;;2058565;28;20456;-72
2023/04/08 00:08:17;;;;;;;;;;;6.80;99.90;;;;;;2058900;28;19917;-72
2023/04/08 00:09:17;;;;;;;;;;;6.80;99.90;;;;;;2058071;28;19917;-72
2023/04/08 00:10:18;;;;;;;;;;;6.80;99.90;;;;;;2058687;28;19916;-72
2023/04/08 00:11:19;;;;;;;;;;;6.80;99.90;;;;;;2058110;28;19910;-72
2023/04/08 00:12:20;;;;;;;;;;;6.80;99.90;;;;;;2057048;28;19961;-72
2023/04/08 00:13:20;;;;;;;;;;;6.70;99.90;;;;;;2058558;28;19910;-72
2023/04/08 00:14:21;;;;;;;;;;;6.70;99.90;;;;;;2056676;28;19914;-72
2023/04/08 00:15:21;;;;;;;;;;;6.70;99.90;;;;;;2056048;28;19909;-72
2023/04/08 00:16:22;;;;;;;;;;;6.70;99.90;;;;;;2057464;28;20009;-72
2023/04/08 00:17:22;;;;;;;;;;;6.70;99.90;;;;;;2059604;28;19996;-72
2023/04/08 00:18:22;;;;;;;;;;;6.60;99.90;;;;;;2064390;28;20437;-72
2023/04/08 00:19:24;;;;;;;;;;;6.70;99.90;;;;;;2060711;28;20024;-72
2023/04/08 00:20:24;;;;;;;;;;;6.60;99.90;;;;;;2064315;28;19909;-72
2023/04/08 00:21:25;;;;;;;;;;;6.60;99.90;;;;;;2064969;28;19909;-72
2023/04/08 00:22:26;;;;;;;;;;;6.60;99.90;;;;;;2057857;28;19952;-72
2023/04/08 00:23:26;;;;;;;;;;;6.60;99.90;;;;;;2058059;28;19920;-72
2023/04/08 00:24:27;;;;;;;;;;;6.60;99.90;;;;;;2058658;28;19910;-72
2023/04/08 00:25:27;;;;;;;;;;;6.60;99.90;;;;;;2066759;28;19958;-72
2023/04/08 00:26:28;;;;;;;;;;;6.50;99.90;;;;;;2066706;28;20346;-72
2023/04/08 00:27:28;;;;;;;;;;;6.50;99.90;;;;;;2057188;28;19949;-72
2023/04/08 00:28:29;;;;;;;;;;;6.50;99.90;;;;;;2059905;28;20012;-72
2023/04/08 00:29:29;;;;;;;;;;;6.50;99.90;;;;;;2058668;28;19914;-72
2023/04/08 00:30:30;;;;;;;;;;;6.50;99.90;;;;;;2058185;28;19917;-72
2023/04/08 00:31:30;;;;;;;;;;;6.50;99.90;;;;;;2066640;28;21013;-72
2023/04/08 00:32:31;;;;;;;;;;;6.50;99.90;;;;;;2065130;28;19916;-72
2023/04/08 00:33:32;;;;;;;;;;;6.50;99.90;;;;;;2058750;28;20330;-72
2023/04/08 00:34:33;;;;;;;;;;;6.40;99.90;;;;;;2056753;28;19914;-72
2023/04/08 00:35:33;;;;;;;;;;;6.40;99.90;;;;;;2058876;28;20302;-72
2023/04/08 00:36:35;;;;;;;;;;;6.40;99.90;;;;;;2059246;28;20642;-72
2023/04/08 00:37:36;;;;;;;;;;;6.40;99.90;;;;;;2058219;28;19921;-72
2023/04/08 00:38:36;;;;;;;;;;;6.40;99.90;;;;;;2059773;28;19921;-72
2023/04/08 00:39:36;;;;;;;;;;;6.40;99.90;;;;;;2059350;28;19910;-72
2023/04/08 00:40:37;;;;;;;;;;;6.40;99.90;;;;;;2059697;28;19953;-72
2023/04/08 00:41:38;;;;;;;;;;;6.40;99.90;;;;;;2059208;28;19910;-72
2023/04/08 00:42:38;;;;;;;;;;;6.40;99.90;;;;;;2058534;28;19910;-72
2023/04/08 00:43:39;;;;;;;;;;;6.40;99.90;;;;;;2060180;28;19906;-72
2023/04/08 00:44:39;;;;;;;;;;;6.40;99.90;;;;;;2064107;28;20382;-72
2023/04/08 00:45:39;;;;;;;;;;;6.40;99.90;;;;;;2063644;28;20001;-72
2023/04/08 00:46:40;;;;;;;;;;;6.30;99.90;;;;;;2057076;28;19996;-72
2023/04/08 00:47:40;;;;;;;;;;;6.30;99.90;;;;;;2057444;28;19906;-72
2023/04/08 00:48:41;;;;;;;;;;;6.30;99.90;;;;;;2059115;28;20503;-72
2023/04/08 00:49:42;;;;;;;;;;;6.30;99.90;;;;;;2067080;28;19905;-72
2023/04/08 00:50:43;;;;;;;;;;;6.30;99.90;;;;;;2065156;28;19917;-72
2023/04/08 00:51:44;;;;;;;;;;;6.30;99.90;;;;;;2066314;28;19913;-72
2023/04/08 00:52:45;;;;;;;;;;;6.30;99.90;;;;;;2066811;28;19953;-72
2023/04/08 00:53:45;;;;;;;;;;;6.30;99.90;;;;;;2059914;28;19961;-72
2023/04/08 00:54:46;;;;;;;;;;;6.30;99.90;;;;;;2058242;28;20001;-72
2023/04/08 00:55:46;;;;;;;;;;;6.30;99.90;;;;;;2059018;28;19916;-72
2023/04/08 00:56:46;;;;;;;;;;;6.30;99.90;;;;;;2057382;28;19910;-72
2023/04/08 00:57:47;;;;;;;;;;;6.30;99.90;;;;;;2061018;28;19968;-72
2023/04/08 00:58:48;;;;;;;;;;;6.30;99.90;;;;;;2063632;28;19921;-72
2023/04/08 00:59:48;;;;;;;;;;;6.30;99.90;;;;;;2064680;28;19910;-72
2023/04/08 01:00:53;;;;;;;;;;;6.30;99.90;;;;;;2060569;28;19906;-72
2023/04/08 01:01:56;;;;;;;;;;;6.30;99.90;;;;;;2059646;28;19914;-72
2023/04/08 01:03:07;;;;;;;;;;;6.30;99.90;;;;;;2060772;28;19921;-72
2023/04/08 01:04:28;;;;;;;;;;;6.30;99.90;;;;;;2056964;28;19906;-72
2023/04/08 01:05:38;;;;;;;;;;;6.30;99.90;;;;;;2060686;28;20044;-72
2023/04/08 01:06:44;;;;;;;;;;;6.30;99.90;;;;;;2057936;28;20370;-72
2023/04/08 01:07:47;;;;;;;;;;;6.30;99.90;;;;;;2059171;28;20004;-72
2023/04/08 01:08:48;;;;;;;;;;;6.40;99.90;;;;;;2058417;28;19917;-72
2023/04/08 01:09:51;;;;;;;;;;;6.30;99.90;;;;;;2058288;28;19996;-72
2023/04/08 01:10:53;;;;;;;;;;;6.30;99.90;;;;;;2062503;28;19936;-72
2023/04/08 01:11:55;;;;;;;;;;;6.40;99.90;;;;;;2059174;28;19961;-72
2023/04/08 01:12:57;;;;;;;;;;;6.40;99.90;;;;;;2058875;28;19917;-72
2023/04/08 01:13:58;;;;;;;;;;;6.40;99.90;;;;;;2059684;28;19916;-72
2023/04/08 01:15:03;;;;;;;;;;;6.40;99.90;;;;;;2060749;28;20004;-72
2023/04/08 01:16:04;;;;;;;;;;;6.40;99.90;;;;;;2076311;28;19909;-72
2023/04/08 01:17:05;;;;;;;;;;;6.40;99.90;;;;;;2074584;28;19916;-72
2023/04/08 01:18:06;;;;;;;;;;;6.40;99.90;;;;;;2058849;28;19921;-72
2023/04/08 01:19:07;;;;;;;;;;;6.40;99.90;;;;;;2060306;28;19906;-72
2023/04/08 01:20:09;;;;;;;;;;;6.40;99.90;;;;;;2058258;28;20484;-72
2023/04/08 01:21:11;;;;;;;;;;;6.40;99.90;;;;;;2058592;28;19945;-72
2023/04/08 01:22:31;;;;;;;;;;;6.40;99.90;;;;;;2062043;28;20400;-72
2023/04/08 01:23:50;;;;;;;;;;;6.40;99.90;;;;;;2063509;28;19909;-72
2023/04/08 01:24:55;;;;;;;;;;;6.40;99.90;;;;;;2068801;28;19910;-72
2023/04/08 01:25:55;;;;;;;;;;;6.40;99.90;;;;;;2065486;28;19913;-72
2023/04/08 01:26:56;;;;;;;;;;;6.40;99.90;;;;;;2060550;28;19995;-72
2023/04/08 01:27:58;;;;;;;;;;;6.40;99.90;;;;;;2058118;28;19918;-72
2023/04/08 01:28:59;;;;;;;;;;;6.40;99.90;;;;;;2058461;28;19910;-72
2023/04/08 01:30:02;;;;;;;;;;;6.40;99.90;;;;;;2067426;28;19960;-72
2023/04/08 01:31:02;;;;;;;;;;;6.40;99.90;;;;;;2065521;28;20063;-72
2023/04/08 01:32:03;;;;;;;;;;;6.40;99.90;;;;;;2061246;28;19913;-72
2023/04/08 01:33:04;;;;;;;;;;;6.40;99.90;;;;;;2057420;28;19918;-72
2023/04/08 01:34:05;;;;;;;;;;;6.40;99.90;;;;;;2059407;28;19948;-72
2023/04/08 01:35:06;;;;;;;;;;;6.40;99.90;;;;;;2058998;28;19956;-72
2023/04/08 01:36:07;;;;;;;;;;;6.40;99.90;;;;;;2059519;28;20281;-72
2023/04/08 01:37:08;;;;;;;;;;;6.40;99.90;;;;;;2062501;28;19913;-72
2023/04/08 01:38:12;;;;;;;;;;;6.40;99.90;;;;;;2062095;28;20350;-72
2023/04/08 01:39:15;;;;;;;;;;;6.40;99.90;;;;;;2068834;28;19917;-72
2023/04/08 01:40:17;;;;;;;;;;;6.50;99.90;;;;;;2056992;28;19953;-72
2023/04/08 01:41:18;;;;;;;;;;;6.40;99.90;;;;;;2057975;28;20457;-72
2023/04/08 01:42:19;;;;;;;;;;;6.50;99.90;;;;;;2059948;28;19913;-72
2023/04/08 01:43:20;;;;;;;;;;;6.50;99.90;;;;;;2062014;28;19906;-72
2023/04/08 01:44:21;;;;;;;;;;;6.40;99.90;;;;;;2061220;28;20001;-72
2023/04/08 01:45:22;;;;;;;;;;;6.50;99.90;;;;;;2059938;28;19917;-72
2023/04/08 01:46:23;;;;;;;;;;;6.50;99.90;;;;;;2059369;28;20329;-72
2023/04/08 01:47:24;;;;;;;;;;;6.40;99.90;;;;;;2058170;28;19949;-72
2023/04/08 01:48:25;;;;;;;;;;;6.40;99.90;;;;;;2059037;28;20616;-72
2023/04/08 01:49:26;;;;;;;;;;;6.40;99.90;;;;;;2058709;28;19986;-72
2023/04/08 01:50:28;;;;;;;;;;;6.40;99.90;;;;;;2057950;28;21182;-72
2023/04/08 01:51:30;;;;;;;;;;;6.40;99.90;;;;;;2058660;28;21060;-72
2023/04/08 01:52:33;;;;;;;;;;;6.40;99.90;;;;;;2058382;28;19917;-72
2023/04/08 01:53:34;;;;;;;;;;;6.40;99.90;;;;;;2058492;28;19910;-72
2023/04/08 01:54:35;;;;;;;;;;;6.40;99.90;;;;;;2058318;28;20460;-72
2023/04/08 01:55:37;;;;;;;;;;;6.40;99.90;;;;;;2061452;28;20554;-72
2023/04/08 01:56:39;;;;;;;;;;;6.40;99.90;;;;;;2060920;28;19967;-72
2023/04/08 01:57:40;;;;;;;;;;;6.40;99.90;;;;;;2060549;28;20273;-72
2023/04/08 01:58:42;;;;;;;;;;;6.40;99.90;;;;;;2058565;28;19961;-72
2023/04/08 01:59:46;;;;;;;;;;;6.40;99.90;;;;;;2058321;28;19913;-72
2023/04/08 02:00:47;;;;;;;;;;;6.40;99.90;;;;;;2056546;28;19906;-72
2023/04/08 02:01:48;;;;;;;;;;;6.30;99.90;;;;;;2060100;28;19916;-72
2023/04/08 02:02:49;;;;;;;;;;;6.30;99.90;;;;;;2060743;28;19920;-72
2023/04/08 02:03:50;;;;;;;;;;;6.30;99.90;;;;;;2059086;28;20384;-72
2023/04/08 02:04:52;;;;;;;;;;;6.30;99.90;;;;;;2060812;28;20345;-72
2023/04/08 02:05:52;;;;;;;;;;;6.30;99.90;;;;;;2055946;28;19910;-72
2023/04/08 02:06:54;;;;;;;;;;;6.30;99.90;;;;;;2059104;28;20005;-72
2023/04/08 02:07:58;;;;;;;;;;;6.30;99.90;;;;;;2061187;28;22174;-72
2023/04/08 02:08:59;;;;;;;;;;;6.30;99.90;;;;;;2060214;28;19914;-72
2023/04/08 02:10:00;;;;;;;;;;;6.30;99.90;;;;;;2058941;28;20009;-72
2023/04/08 02:11:00;;;;;;;;;;;6.30;99.90;;;;;;2058311;28;19924;-72
2023/04/08 02:12:01;;;;;;;;;;;6.30;99.90;;;;;;2058079;28;19977;-72
2023/04/08 02:13:02;;;;;;;;;;;6.30;99.90;;;;;;2058739;28;19926;-72
2023/04/08 02:14:02;;;;;;;;;;;6.30;99.90;;;;;;2059527;28;19909;-72
2023/04/08 02:15:03;;;;;;;;;;;6.30;99.90;;;;;;2058048;28;19914;-72
2023/04/08 02:16:24;;;;;;;;;;;6.30;99.90;;;;;;2057406;28;19918;-72
2023/04/08 02:17:30;;;;;;;;;;;6.30;99.90;;;;;;2061798;28;19973;-72
2023/04/08 02:18:33;;;;;;;;;;;6.30;99.90;;;;;;2058326;28;19910;-72
2023/04/08 02:19:39;;;;;;;;;;;6.30;99.90;;;;;;2057983;28;19942;-72
2023/04/08 02:20:45;;;;;;;;;;;6.30;99.90;;;;;;2065941;28;20325;-72
2023/04/08 02:21:47;;;;;;;;;;;6.30;99.90;;;;;;2065025;28;19932;-72
2023/04/08 02:22:52;;;;;;;;;;;6.30;99.90;;;;;;2059935;28;19906;-72
2023/04/08 02:23:53;;;;;;;;;;;6.30;99.90;;;;;;2059328;28;19910;-72
2023/04/08 02:24:54;;;;;;;;;;;6.30;99.90;;;;;;2060050;28;19917;-72
2023/04/08 02:25:55;;;;;;;;;;;6.30;99.90;;;;;;2058677;28;19918;-72
2023/04/08 02:26:56;;;;;;;;;;;6.30;99.90;;;;;;2058317;28;20568;-72
2023/04/08 02:27:58;;;;;;;;;;;6.30;99.90;;;;;;2058885;28;19996;-72
2023/04/08 02:28:59;;;;;;;;;;;6.20;99.90;;;;;;2058938;28;19916;-72
2023/04/08 02:30:02;;;;;;;;;;;6.20;99.90;;;;;;2057391;28;19917;-72
2023/04/08 02:31:04;;;;;;;;;;;6.20;99.90;;;;;;2058567;28;19918;-72
2023/04/08 02:32:05;;;;;;;;;;;6.20;99.90;;;;;;2058289;28;19917;-72
2023/04/08 02:33:06;;;;;;;;;;;6.20;99.90;;;;;;2056901;28;19917;-72
2023/04/08 02:34:10;;;;;;;;;;;6.20;99.90;;;;;;2059410;28;19907;-72
2023/04/08 02:35:11;;;;;;;;;;;6.30;99.90;;;;;;2058913;28;19910;-72
2023/04/08 02:36:13;;;;;;;;;;;6.30;99.90;;;;;;2058010;28;19913;-72
2023/04/08 02:37:13;;;;;;;;;;;6.30;99.90;;;;;;2057365;28;19914;-72
2023/04/08 02:38:14;;;;;;;;;;;6.30;99.90;;;;;;2058146;28;20421;-72
2023/04/08 02:39:15;;;;;;;;;;;6.30;99.90;;;;;;2059138;28;19914;-72
2023/04/08 02:40:21;;;;;;;;;;;6.30;99.90;;;;;;2058652;28;19917;-72
2023/04/08 02:41:22;;;;;;;;;;;6.30;99.90;;;;;;2059153;28;20377;-72
2023/04/08 02:42:22;;;;;;;;;;;6.30;99.90;;;;;;2067528;28;20582;-72
2023/04/08 02:43:31;;;;;;;;;;;6.30;99.90;;;;;;2066790;28;19914;-73
2023/04/08 02:44:31;;;;;;;;;;;6.30;99.90;;;;;;2059067;28;19959;-72
2023/04/08 02:45:36;;;;;;;;;;;6.40;99.90;;;;;;2056704;28;20408;-72
2023/04/08 02:46:37;;;;;;;;;;;6.40;99.90;;;;;;2057666;28;19914;-72
2023/04/08 02:47:37;;;;;;;;;;;6.40;99.90;;;;;;2057059;28;19998;-72
2023/04/08 02:48:38;;;;;;;;;;;6.40;99.90;;;;;;2058404;28;19917;-72
2023/04/08 02:49:38;;;;;;;;;;;6.40;99.90;;;;;;2064290;28;19913;-72
2023/04/08 02:50:40;;;;;;;;;;;6.40;99.90;;;;;;2065653;28;19906;-72
2023/04/08 02:51:40;;;;;;;;;;;6.40;99.90;;;;;;2060288;28;19925;-72
2023/04/08 02:52:42;;;;;;;;;;;6.40;99.90;;;;;;2056798;28;19916;-72
2023/04/08 02:53:43;;;;;;;;;;;6.40;99.90;;;;;;2058169;28;19914;-72
2023/04/08 02:54:43;;;;;;;;;;;6.40;99.90;;;;;;2060492;28;19938;-72
2023/04/08 02:55:44;;;;;;;;;;;6.40;99.90;;;;;;2057980;28;19910;-73
2023/04/08 02:56:44;;;;;;;;;;;6.40;99.90;;;;;;2060017;28;19909;-72
2023/04/08 02:57:45;;;;;;;;;;;6.40;99.90;;;;;;2058525;28;19949;-72
2023/04/08 02:58:46;;;;;;;;;;;6.40;99.90;;;;;;2057533;28;20330;-72
2023/04/08 02:59:46;;;;;;;;;;;6.40;99.90;;;;;;2059679;28;19909;-73
2023/04/08 03:00:47;;;;;;;;;;;6.40;99.90;;;;;;2057104;28;20812;-72
2023/04/08 03:01:47;;;;;;;;;;;6.40;99.90;;;;;;2058603;28;19910;-73
2023/04/08 03:02:47;;;;;;;;;;;6.40;99.90;;;;;;2059879;28;19914;-73
2023/04/08 03:03:48;;;;;;;;;;;6.50;99.90;;;;;;2058522;28;19964;-72
2023/04/08 03:04:48;;;;;;;;;;;6.40;99.90;;;;;;2075243;28;20773;-72
2023/04/08 03:05:49;;;;;;;;;;;6.50;99.90;;;;;;2074086;28;19937;-72
2023/04/08 03:06:49;;;;;;;;;;;6.50;99.90;;;;;;2058463;28;20676;-72
2023/04/08 03:07:50;;;;;;;;;;;6.50;99.90;;;;;;2059721;28;20259;-71
2023/04/08 03:08:50;;;;;;;;;;;6.50;99.90;;;;;;2058420;28;19932;-72
2023/04/08 03:09:51;;;;;;;;;;;6.50;99.90;;;;;;2057704;28;20401;-72
2023/04/08 03:10:52;;;;;;;;;;;6.50;99.90;;;;;;2060141;28;19910;-72
2023/04/08 03:11:53;;;;;;;;;;;6.50;99.90;;;;;;2058679;28;19914;-72
2023/04/08 03:12:54;;;;;;;;;;;6.50;99.90;;;;;;2066713;28;20289;-72
2023/04/08 03:13:54;;;;;;;;;;;6.50;99.90;;;;;;2065105;28;20027;-72
2023/04/08 03:14:55;;;;;;;;;;;6.50;99.90;;;;;;2059631;28;19924;-73
2023/04/08 03:15:55;;;;;;;;;;;6.50;99.90;;;;;;2060474;28;19906;-72
2023/04/08 03:16:56;;;;;;;;;;;6.50;99.90;;;;;;2058221;28;19905;-72
2023/04/08 03:17:56;;;;;;;;;;;6.40;99.90;;;;;;2057188;28;19917;-72
2023/04/08 03:18:56;;;;;;;;;;;6.50;99.90;;;;;;2058414;28;19914;-72
2023/04/08 03:19:57;;;;;;;;;;;6.40;99.90;;;;;;2057727;28;19914;-72
2023/04/08 03:20:57;;;;;;;;;;;6.50;99.90;;;;;;2058017;28;20370;-72
2023/04/08 03:21:58;;;;;;;;;;;6.40;99.90;;;;;;2058788;28;19909;-72
2023/04/08 03:22:58;;;;;;;;;;;6.40;99.90;;;;;;2058264;28;20021;-72
2023/04/08 03:23:59;;;;;;;;;;;6.50;99.90;;;;;;2057982;28;20377;-72
2023/04/08 03:24:59;;;;;;;;;;;6.50;99.90;;;;;;2059054;28;19952;-72
2023/04/08 03:26:00;;;;;;;;;;;6.50;99.90;;;;;;2058669;28;19910;-73
2023/04/08 03:27:00;;;;;;;;;;;6.50;99.90;;;;;;2058503;28;19992;-72
2023/04/08 03:28:01;;;;;;;;;;;6.50;99.90;;;;;;2056138;28;20615;-72
2023/04/08 03:29:01;;;;;;;;;;;6.50;99.90;;;;;;2060499;28;19916;-72
2023/04/08 03:30:02;;;;;;;;;;;6.50;99.90;;;;;;2057725;28;19910;-72
2023/04/08 03:31:03;;;;;;;;;;;6.50;99.90;;;;;;2057204;28;19918;-72
2023/04/08 03:32:03;;;;;;;;;;;6.50;99.90;;;;;;2056450;28;19914;-72
2023/04/08 03:33:06;;;;;;;;;;;6.50;99.90;;;;;;2057798;28;20013;-72
2023/04/08 03:34:07;;;;;;;;;;;6.50;99.90;;;;;;2058444;28;19975;-72
2023/04/08 03:35:08;;;;;;;;;;;6.50;99.90;;;;;;2058325;28;19989;-72
2023/04/08 03:36:08;;;;;;;;;;;6.60;99.90;;;;;;2057371;28;19952;-72
2023/04/08 03:37:09;;;;;;;;;;;6.60;99.90;;;;;;2057996;28;19932;-72
2023/04/08 03:38:09;;;;;;;;;;;6.60;99.90;;;;;;2059335;28;20016;-72
2023/04/08 03:39:10;;;;;;;;;;;6.60;99.90;;;;;;2058258;28;20378;-72
2023/04/08 03:40:11;;;;;;;;;;;6.60;99.90;;;;;;2057488;28;19913;-72
2023/04/08 03:41:11;;;;;;;;;;;6.70;99.90;;;;;;2059274;28;19909;-72
2023/04/08 03:42:12;;;;;;;;;;;6.70;99.90;;;;;;2059505;28;20040;-72
2023/04/08 03:43:12;;;;;;;;;;;6.70;99.90;;;;;;2058144;28;19909;-73
2023/04/08 03:44:13;;;;;;;;;;;6.70;99.90;;;;;;2056714;28;19918;-72
2023/04/08 03:45:13;;;;;;;;;;;6.70;99.90;;;;;;2060343;28;19941;-72
2023/04/08 03:46:14;;;;;;;;;;;6.70;99.90;;;;;;2059400;28;19999;-72
2023/04/08 03:47:14;;;;;;;;;;;6.70;99.90;;;;;;2058527;28;19948;-72
2023/04/08 03:48:15;;;;;;;;;;;6.70;99.90;;;;;;2059621;28;19960;-73
2023/04/08 03:49:15;;;;;;;;;;;6.70;99.90;;;;;;2060264;28;19916;-72
2023/04/08 03:50:16;;;;;;;;;;;6.70;99.90;;;;;;2058724;28;19952;-72
2023/04/08 03:51:16;;;;;;;;;;;6.80;99.90;;;;;;2059627;28;20296;-72
2023/04/08 03:52:17;;;;;;;;;;;6.70;99.90;;;;;;2060166;28;20389;-72
2023/04/08 03:53:17;;;;;;;;;;;6.70;99.90;;;;;;2059197;28;20105;-73
2023/04/08 03:54:18;;;;;;;;;;;6.80;99.90;;;;;;2058705;28;19956;-72
2023/04/08 03:55:18;;;;;;;;;;;6.80;99.90;;;;;;2059896;28;19990;-72
2023/04/08 03:56:19;;;;;;;;;;;6.80;99.90;;;;;;2060416;28;19944;-72
2023/04/08 03:57:20;;;;;;;;;;;6.80;99.90;;;;;;2059581;28;19953;-72
2023/04/08 03:58:20;;;;;;;;;;;6.80;99.90;;;;;;2061447;28;19914;-72
2023/04/08 03:59:21;;;;;;;;;;;6.80;99.90;;;;;;2059862;28;20275;-72
2023/04/08 04:00:21;;;;;;;;;;;6.80;99.90;;;;;;2056999;28;19949;-72
2023/04/08 04:01:21;;;;;;;;;;;6.80;99.90;;;;;;2057218;28;19909;-72
2023/04/08 04:02:22;;;;;;;;;;;6.80;99.90;;;;;;2057593;28;19909;-72
2023/04/08 04:03:23;;;;;;;;;;;6.80;99.90;;;;;;2063185;28;19913;-72
2023/04/08 04:04:24;;;;;;;;;;;6.90;99.90;;;;;;2067230;28;19996;-72
2023/04/08 04:05:24;;;;;;;;;;;6.80;99.90;;;;;;2059796;28;19910;-72
2023/04/08 04:06:25;;;;;;;;;;;6.80;99.90;;;;;;2060169;28;19941;-73
2023/04/08 04:07:25;;;;;;;;;;;6.80;99.90;;;;;;2056612;28;19914;-72
2023/04/08 04:08:26;;;;;;;;;;;6.90;99.90;;;;;;2057177;28;20481;-73
2023/04/08 04:09:26;;;;;;;;;;;6.80;99.90;;;;;;2057359;28;19913;-72
2023/04/08 04:10:27;;;;;;;;;;;6.80;99.90;;;;;;2056620;28;20333;-73
2023/04/08 04:11:27;;;;;;;;;;;6.80;99.90;;;;;;2058914;28;19991;-73
2023/04/08 04:12:28;;;;;;;;;;;6.80;99.90;;;;;;2058794;28;19920;-73
2023/04/08 04:13:28;;;;;;;;;;;6.80;99.90;;;;;;2065677;28;19917;-72
2023/04/08 04:14:29;;;;;;;;;;;6.80;99.90;;;;;;2066424;28;19909;-72
2023/04/08 04:15:29;;;;;;;;;;;6.80;99.90;;;;;;2058909;28;19945;-73
2023/04/08 04:16:29;;;;;;;;;;;6.80;99.90;;;;;;2056225;28;19914;-73
2023/04/08 04:17:30;;;;;;;;;;;6.80;99.90;;;;;;2057999;28;19913;-73
2023/04/08 04:18:30;;;;;;;;;;;6.80;99.90;;;;;;2059635;28;19933;-72
2023/04/08 04:19:31;;;;;;;;;;;6.80;99.90;;;;;;2057976;28;19917;-72
2023/04/08 04:20:31;;;;;;;;;;;6.80;99.90;;;;;;2057306;28;19910;-72
2023/04/08 04:21:32;;;;;;;;;;;6.80;99.90;;;;;;2057563;28;19998;-72
2023/04/08 04:22:32;;;;;;;;;;;6.80;99.90;;;;;;2058309;28;19914;-72
2023/04/08 04:23:33;;;;;;;;;;;6.80;99.90;;;;;;2058313;28;19918;-72
2023/04/08 04:24:33;;;;;;;;;;;6.80;99.90;;;;;;2058964;28;20686;-72
2023/04/08 04:25:34;;;;;;;;;;;6.80;99.90;;;;;;2059164;28;20266;-72
2023/04/08 04:26:34;;;;;;;;;;;6.80;99.90;;;;;;2058693;28;19917;-72
2023/04/08 04:27:35;;;;;;;;;;;6.80;99.90;;;;;;2056610;28;19957;-73
2023/04/08 04:28:36;;;;;;;;;;;6.80;99.90;;;;;;2056515;28;19985;-72
2023/04/08 04:29:37;;;;;;;;;;;6.80;99.90;;;;;;2059100;28;19933;-72
2023/04/08 04:30:37;;;;;;;;;;;6.80;99.90;;;;;;2060207;28;19906;-72
2023/04/08 04:31:38;;;;;;;;;;;6.80;99.90;;;;;;2061217;28;19921;-72
2023/04/08 04:32:38;;;;;;;;;;;6.80;99.90;;;;;;2058885;28;20005;-72
2023/04/08 04:33:39;;;;;;;;;;;6.90;99.90;;;;;;2058910;28;19910;-72
2023/04/08 04:34:39;;;;;;;;;;;6.90;99.90;;;;;;2056077;28;19913;-72
2023/04/08 04:35:40;;;;;;;;;;;6.90;99.90;;;;;;2057401;28;19916;-72
2023/04/08 04:36:40;;;;;;;;;;;6.90;99.90;;;;;;2060351;28;19979;-72
2023/04/08 04:37:41;;;;;;;;;;;6.90;99.90;;;;;;2056841;28;19916;-73
2023/04/08 04:38:44;;;;;;;;;;;6.90;99.90;;;;;;2058471;28;19936;-72
2023/04/08 04:39:45;;;;;;;;;;;6.90;99.90;;;;;;2058711;28;20237;-72
2023/04/08 04:40:45;;;;;;;;;;;6.90;99.90;;;;;;2058883;28;19945;-72
2023/04/08 04:41:47;;;;;;;;;;;6.90;99.90;;;;;;2060193;28;20012;-72
2023/04/08 04:42:48;;;;;;;;;;;6.90;99.90;;;;;;2060635;28;19986;-73
2023/04/08 04:43:48;;;;;;;;;;;6.90;99.90;;;;;;2061384;28;19910;-72
2023/04/08 04:44:49;;;;;;;;;;;6.90;99.90;;;;;;2067690;28;20665;-72
2023/04/08 04:45:49;;;;;;;;;;;7.00;99.90;;;;;;2058866;28;19910;-73
2023/04/08 04:46:50;;;;;;;;;;;7.00;99.90;;;;;;2060625;28;19910;-72
2023/04/08 04:47:50;;;;;;;;;;;6.90;99.90;;;;;;2059887;28;20381;-72
2023/04/08 04:48:51;;;;;;;;;;;6.90;99.90;;;;;;2059272;28;19936;-72
2023/04/08 04:49:51;;;;;;;;;;;6.90;99.90;;;;;;2059401;28;19960;-72
2023/04/08 04:51:00;;;;;;;;;;;6.90;99.90;;;;;;2059386;28;19905;-73
2023/04/08 04:52:00;;;;;;;;;;;6.90;99.90;;;;;;2059597;28;19973;-73
2023/04/08 04:53:00;;;;;;;;;;;6.90;99.90;;;;;;2075400;28;19967;-72
2023/04/08 04:54:01;;;;;;;;;;;6.90;99.90;;;;;;2076953;28;19905;-73
2023/04/08 04:55:02;;;;;;;;;;;6.90;99.90;;;;;;2058517;28;20432;-73
2023/04/08 04:56:02;;;;;;;;;;;6.90;99.90;;;;;;2060202;28;19941;-72
2023/04/08 04:57:03;;;;;;;;;;;6.90;99.90;;;;;;2061466;28;19914;-73
2023/04/08 04:58:03;;;;;;;;;;;6.80;99.90;;;;;;2060440;28;19914;-73
2023/04/08 04:59:04;;;;;;;;;;;6.90;99.90;;;;;;2061629;28;19912;-72
2023/04/08 05:00:05;;;;;;;;;;;6.80;99.90;;;;;;2059799;28;20891;-73
2023/04/08 05:01:05;;;;;;;;;;;6.80;99.90;;;;;;2059087;28;20021;-73
2023/04/08 05:02:06;;;;;;;;;;;6.80;99.90;;;;;;2057240;28;19917;-73
2023/04/08 05:03:06;;;;;;;;;;;6.80;99.90;;;;;;2060493;28;19910;-72
2023/04/08 05:04:07;;;;;;;;;;;6.80;99.90;;;;;;2057851;28;19905;-72
2023/04/08 05:05:07;;;;;;;;;;;6.80;99.90;;;;;;2059782;28;20487;-73
2023/04/08 05:06:08;;;;;;;;;;;6.80;99.90;;;;;;2058491;28;19921;-73
2023/04/08 05:07:08;;;;;;;;;;;6.80;99.90;;;;;;2066768;28;19909;-72
2023/04/08 05:08:09;;;;;;;;;;;6.80;99.90;;;;;;2059329;28;20325;-72
2023/04/08 05:09:09;;;;;;;;;;;6.80;99.90;;;;;;2059843;28;19917;-73
2023/04/08 05:10:10;;;;;;;;;;;6.80;99.90;;;;;;2058362;28;19909;-73
2023/04/08 05:11:10;;;;;;;;;;;6.80;99.90;;;;;;2062585;28;19906;-72
2023/04/08 05:12:11;;;;;;;;;;;6.80;99.90;;;;;;2060508;28;19913;-72
2023/04/08 05:13:11;;;;;;;;;;;6.90;99.90;;;;;;2059438;28;20071;-72
2023/04/08 05:14:12;;;;;;;;;;;6.90;99.90;;;;;;2059101;28;19910;-73
2023/04/08 05:15:12;;;;;;;;;;;6.90;99.90;;;;;;2069586;28;19917;-73
2023/04/08 05:16:13;;;;;;;;;;;6.90;99.90;;;;;;2066001;28;19920;-72
2023/04/08 05:17:13;;;;;;;;;;;6.90;99.90;;;;;;2059946;28;19910;-73
2023/04/08 05:18:14;;;;;;;;;;;6.90;99.90;;;;;;2059916;28;19912;-73
2023/04/08 05:19:14;;;;;;;;;;;6.90;99.90;;;;;;2059185;28;19913;-72
2023/04/08 05:20:15;;;;;;;;;;;6.90;99.90;;;;;;2058872;28;19940;-72
2023/04/08 05:21:15;;;;;;;;;;;6.90;99.90;;;;;;2059383;28;19913;-72
2023/04/08 05:22:16;;;;;;;;;;;6.90;99.90;;;;;;2058487;28;19916;-73
2023/04/08 05:23:16;;;;;;;;;;;6.90;99.90;;;;;;2061524;28;19917;-72
2023/04/08 05:24:17;;;;;;;;;;;6.90;99.90;;;;;;2059392;28;19910;-73
2023/04/08 05:25:17;;;;;;;;;;;6.90;99.90;;;;;;2059247;28;20386;-73
2023/04/08 05:26:18;;;;;;;;;;;6.90;99.90;;;;;;2059382;28;19913;-73
2023/04/08 05:27:20;;;;;;;;;;;6.90;99.90;;;;;;2058142;28;20063;-72
2023/04/08 05:28:20;;;;;;;;;;;6.90;99.90;;;;;;2061733;28;19952;-72
2023/04/08 05:29:21;;;;;;;;;;;6.90;99.90;;;;;;2057294;28;19910;-73
2023/04/08 05:30:22;;;;;;;;;;;6.90;99.90;;;;;;2065126;28;19910;-73
2023/04/08 05:31:22;;;;;;;;;;;6.90;99.90;;;;;;2066142;28;20313;-72
2023/04/08 05:32:23;;;;;;;;;;;6.90;99.90;;;;;;2060601;28;19985;-72
2023/04/08 05:33:25;;;;;;;;;;;6.90;99.90;;;;;;2057292;28;20290;-73
2023/04/08 05:34:25;;;;;;;;;;;6.90;99.90;;;;;;2059207;28;20076;-73
2023/04/08 05:35:26;;;;;;;;;;;6.90;99.90;;;;;;2058759;28;19910;-72
2023/04/08 05:36:27;;;;;;;;;;;6.90;99.90;;;;;;2059427;28;19910;-73
2023/04/08 05:37:27;;;;;;;;;;;6.90;99.90;;;;;;2057411;28;19910;-73
2023/04/08 05:38:28;;;;;;;;;;;7.00;99.90;;;;;;2066697;28;19917;-72
2023/04/08 05:39:28;;;;;;;;;;;7.00;99.90;;;;;;2065879;28;19964;-72
2023/04/08 05:40:29;;;;;;;;;;;7.00;99.90;;;;;;2057668;28;19916;-73
2023/04/08 05:41:29;;;;;;;;;;;7.00;99.90;;;;;;2058581;28;19910;-73
2023/04/08 05:42:31;;;;;;;;;;;7.00;99.90;;;;;;2057944;28;19910;-73
2023/04/08 05:43:32;;;;;;;;;;;7.00;99.90;;;;;;2059374;28;19965;-73
2023/04/08 05:44:32;;;;;;;;;;;7.00;99.90;;;;;;2065128;28;19972;-72
2023/04/08 05:45:33;;;;;;;;;;;7.00;99.90;;;;;;2066950;28;19921;-72
2023/04/08 05:46:33;;;;;;;;;;;7.00;99.90;;;;;;2060876;28;19949;-72
2023/04/08 05:47:33;;;;;;;;;;;7.10;99.90;;;;;;2057924;28;20281;-73
2023/04/08 05:48:34;;;;;;;;;;;7.10;99.90;;;;;;2065789;28;19925;-73
2023/04/08 05:49:34;;;;;;;;;;;7.10;99.90;;;;;;2058581;28;20342;-72
2023/04/08 05:50:35;;;;;;;;;;;7.10;99.90;;;;;;2056584;28;19917;-73
2023/04/08 05:51:35;;;;;;;;;;;7.00;99.90;;;;;;2058599;28;20393;-73
2023/04/08 05:52:36;;;;;;;;;;;7.10;99.90;;;;;;2066964;28;19947;-73
2023/04/08 05:53:36;;;;;;;;;;;7.10;99.90;;;;;;2067835;28;19918;-73
2023/04/08 05:54:37;;;;;;;;;;;7.10;99.90;;;;;;2061045;28;19916;-73
2023/04/08 05:55:37;;;;;;;;;;;7.10;99.90;;;;;;2058246;28;19917;-73
2023/04/08 05:56:38;;;;;;;;;;;7.10;99.90;;;;;;2059464;28;20000;-72
2023/04/08 05:57:38;;;;;;;;;;;7.10;99.90;;;;;;2067724;28;19918;-73
2023/04/08 05:58:39;;;;;;;;;;;7.10;99.90;;;;;;2067027;28;20004;-73
2023/04/08 05:59:39;;;;;;;;;;;7.10;99.90;;;;;;2060834;28;19914;-73
2023/04/08 06:00:40;;;;;;;;;;;7.10;99.90;;;;;;2065311;28;19963;-73
2023/04/08 06:01:40;;;;;;;;;;;7.10;99.90;;;;;;2065873;28;19905;-72